sensor_id;sensor_type;location;lat;lon;timestamp;pressure;altitude;pressure_sealevel;temperature;humidity
59531;BME280;45349;48.692;8.186;2023-05-29T00:02:22;98617.31;;;14.03;67.63
59531;BME280;45349;48.692;8.186;2023-05-29T00:04:50;98615.66;;;14.02;67.84
59531;BME280;45349;48.692;8.186;2023-05-29T00:07:17;98619.31;;;13.93;68.38
59531;BME280;45349;48.692;8.186;2023-05-29T00:09:44;98617.38;;;13.86;67.77
59531;BME280;45349;48.692;8.186;2023-05-29T00:12:13;98611.78;;;13.90;69.31
59531;BME280;45349;48.692;8.186;2023-05-29T00:14:40;98617.53;;;13.85;69.61
59531;BME280;45349;48.692;8.186;2023-05-29T00:17:06;98621.50;;;13.81;70.25
59531;BME280;45349;48.692;8.186;2023-05-29T00:19:38;98622.38;;;13.73;70.04
59531;BME280;45349;48.692;8.186;2023-05-29T00:22:06;98620.50;;;13.82;66.67
59531;BME280;45349;48.692;8.186;2023-05-29T00:24:38;98607.84;;;13.94;64.11
59531;BME280;45349;48.692;8.186;2023-05-29T00:27:04;98609.28;;;13.96;64.22
59531;BME280;45349;48.692;8.186;2023-05-29T00:29:56;98610.38;;;14.10;66.26
59531;BME280;45349;48.692;8.186;2023-05-29T00:32:23;98611.88;;;14.05;65.62
59531;BME280;45349;48.692;8.186;2023-05-29T00:34:50;98615.19;;;13.98;66.79
59531;BME280;45349;48.692;8.186;2023-05-29T00:37:18;98613.72;;;13.96;66.30
59531;BME280;45349;48.692;8.186;2023-05-29T00:39:46;98614.41;;;13.90;68.07
59531;BME280;45349;48.692;8.186;2023-05-29T00:42:13;98621.88;;;13.78;67.18
59531;BME280;45349;48.692;8.186;2023-05-29T00:44:40;98612.72;;;13.73;67.03
59531;BME280;45349;48.692;8.186;2023-05-29T00:47:06;98615.38;;;13.65;66.19
59531;BME280;45349;48.692;8.186;2023-05-29T00:49:38;98616.53;;;13.54;67.27
59531;BME280;45349;48.692;8.186;2023-05-29T00:52:06;98619.16;;;13.54;66.65
59531;BME280;45349;48.692;8.186;2023-05-29T00:54:43;98614.91;;;13.53;68.75
59531;BME280;45349;48.692;8.186;2023-05-29T00:57:12;98613.63;;;13.41;67.89
59531;BME280;45349;48.692;8.186;2023-05-29T00:59:39;98611.66;;;13.35;68.05
59531;BME280;45349;48.692;8.186;2023-05-29T01:02:07;98611.84;;;13.41;69.50
59531;BME280;45349;48.692;8.186;2023-05-29T01:04:38;98601.06;;;13.28;68.36
59531;BME280;45349;48.692;8.186;2023-05-29T01:07:05;98598.09;;;13.31;67.23
59531;BME280;45349;48.692;8.186;2023-05-29T01:09:39;98599.06;;;13.30;66.07
59531;BME280;45349;48.692;8.186;2023-05-29T01:12:16;98598.06;;;13.39;65.78
59531;BME280;45349;48.692;8.186;2023-05-29T01:14:55;98597.56;;;13.36;65.78
59531;BME280;45349;48.692;8.186;2023-05-29T01:17:28;98593.16;;;13.36;65.17
59531;BME280;45349;48.692;8.186;2023-05-29T01:20:08;98595.94;;;13.35;64.95
59531;BME280;45349;48.692;8.186;2023-05-29T01:22:58;98596.59;;;13.45;63.65
59531;BME280;45349;48.692;8.186;2023-05-29T01:25:46;98598.38;;;13.53;63.18
59531;BME280;45349;48.692;8.186;2023-05-29T01:28:20;98592.91;;;13.63;62.25
59531;BME280;45349;48.692;8.186;2023-05-29T01:30:49;98587.63;;;13.71;62.32
59531;BME280;45349;48.692;8.186;2023-05-29T01:33:17;98593.63;;;13.80;61.93
59531;BME280;45349;48.692;8.186;2023-05-29T01:35:43;98598.72;;;13.81;62.29
59531;BME280;45349;48.692;8.186;2023-05-29T01:38:10;98600.00;;;13.85;62.04
59531;BME280;45349;48.692;8.186;2023-05-29T01:40:37;98600.97;;;13.93;62.00
59531;BME280;45349;48.692;8.186;2023-05-29T01:43:04;98599.66;;;13.88;61.06
59531;BME280;45349;48.692;8.186;2023-05-29T01:45:33;98598.69;;;13.90;61.76
59531;BME280;45349;48.692;8.186;2023-05-29T01:48:00;98603.63;;;13.84;61.90
59531;BME280;45349;48.692;8.186;2023-05-29T01:50:27;98599.38;;;13.83;62.38
59531;BME280;45349;48.692;8.186;2023-05-29T01:52:55;98599.53;;;13.82;61.85
59531;BME280;45349;48.692;8.186;2023-05-29T01:55:22;98596.06;;;13.90;61.51
59531;BME280;45349;48.692;8.186;2023-05-29T01:57:49;98598.16;;;13.94;60.85
59531;BME280;45349;48.692;8.186;2023-05-29T02:00:17;98603.88;;;13.98;61.92
59531;BME280;45349;48.692;8.186;2023-05-29T02:02:47;98605.91;;;14.11;60.04
59531;BME280;45349;48.692;8.186;2023-05-29T02:05:16;98602.59;;;14.17;59.61
59531;BME280;45349;48.692;8.186;2023-05-29T02:07:43;98591.66;;;14.13;59.94
59531;BME280;45349;48.692;8.186;2023-05-29T02:10:11;98594.91;;;14.15;60.03
59531;BME280;45349;48.692;8.186;2023-05-29T02:12:37;98598.63;;;14.21;60.00
59531;BME280;45349;48.692;8.186;2023-05-29T02:15:05;98594.56;;;14.19;60.33
59531;BME280;45349;48.692;8.186;2023-05-29T02:17:32;98593.09;;;14.16;60.95
59531;BME280;45349;48.692;8.186;2023-05-29T02:20:01;98594.09;;;14.15;60.38
59531;BME280;45349;48.692;8.186;2023-05-29T02:22:29;98592.63;;;14.12;60.87
59531;BME280;45349;48.692;8.186;2023-05-29T02:24:57;98596.41;;;14.10;61.16
59531;BME280;45349;48.692;8.186;2023-05-29T02:27:25;98594.19;;;13.98;61.94
59531;BME280;45349;48.692;8.186;2023-05-29T02:29:52;98596.84;;;13.90;64.06
59531;BME280;45349;48.692;8.186;2023-05-29T02:32:20;98598.59;;;13.75;64.88
59531;BME280;45349;48.692;8.186;2023-05-29T02:34:47;98597.69;;;13.59;66.46
59531;BME280;45349;48.692;8.186;2023-05-29T02:37:16;98596.78;;;13.43;68.25
59531;BME280;45349;48.692;8.186;2023-05-29T02:39:42;98589.72;;;13.27;69.57
59531;BME280;45349;48.692;8.186;2023-05-29T02:42:09;98587.19;;;13.11;70.17
59531;BME280;45349;48.692;8.186;2023-05-29T02:44:38;98586.72;;;12.99;70.42
59531;BME280;45349;48.692;8.186;2023-05-29T02:47:04;98581.34;;;12.84;71.92
59531;BME280;45349;48.692;8.186;2023-05-29T02:49:38;98580.06;;;12.72;73.06
59531;BME280;45349;48.692;8.186;2023-05-29T02:52:05;98588.25;;;12.60;72.17
59531;BME280;45349;48.692;8.186;2023-05-29T02:54:58;98586.47;;;12.61;74.22
59531;BME280;45349;48.692;8.186;2023-05-29T02:57:25;98587.13;;;12.54;74.29
59531;BME280;45349;48.692;8.186;2023-05-29T02:59:51;98591.50;;;12.54;72.66
59531;BME280;45349;48.692;8.186;2023-05-29T03:05:00;98586.78;;;12.49;72.63
59531;BME280;45349;48.692;8.186;2023-05-29T03:07:26;98590.72;;;12.45;74.40
59531;BME280;45349;48.692;8.186;2023-05-29T03:09:55;98592.34;;;12.38;74.21
59531;BME280;45349;48.692;8.186;2023-05-29T03:12:23;98600.00;;;12.31;75.99
59531;BME280;45349;48.692;8.186;2023-05-29T03:14:52;98599.19;;;12.22;76.97
59531;BME280;45349;48.692;8.186;2023-05-29T03:17:19;98595.59;;;12.15;77.01
59531;BME280;45349;48.692;8.186;2023-05-29T03:19:46;98597.22;;;12.08;77.56
59531;BME280;45349;48.692;8.186;2023-05-29T03:22:12;98592.91;;;11.99;77.77
59531;BME280;45349;48.692;8.186;2023-05-29T03:24:40;98592.09;;;11.90;78.08
59531;BME280;45349;48.692;8.186;2023-05-29T03:27:07;98598.78;;;11.84;78.47
59531;BME280;45349;48.692;8.186;2023-05-29T03:29:39;98592.72;;;11.75;78.92
59531;BME280;45349;48.692;8.186;2023-05-29T03:32:06;98595.47;;;11.65;78.54
59531;BME280;45349;48.692;8.186;2023-05-29T03:34:38;98596.25;;;11.58;78.24
59531;BME280;45349;48.692;8.186;2023-05-29T03:37:05;98593.81;;;11.56;78.75
59531;BME280;45349;48.692;8.186;2023-05-29T03:39:56;98600.81;;;11.56;81.03
59531;BME280;45349;48.692;8.186;2023-05-29T03:42:23;98594.78;;;11.55;82.02
59531;BME280;45349;48.692;8.186;2023-05-29T03:44:52;98601.97;;;11.53;82.13
59531;BME280;45349;48.692;8.186;2023-05-29T03:47:21;98599.34;;;11.53;81.21
59531;BME280;45349;48.692;8.186;2023-05-29T03:49:48;98596.72;;;11.53;79.69
59531;BME280;45349;48.692;8.186;2023-05-29T03:52:17;98597.41;;;11.55;81.43
59531;BME280;45349;48.692;8.186;2023-05-29T03:54:44;98599.84;;;11.57;79.89
59531;BME280;45349;48.692;8.186;2023-05-29T03:57:11;98593.81;;;11.56;79.29
59531;BME280;45349;48.692;8.186;2023-05-29T03:59:38;98594.78;;;11.55;79.50
59531;BME280;45349;48.692;8.186;2023-05-29T04:02:06;98601.34;;;11.59;80.26
59531;BME280;45349;48.692;8.186;2023-05-29T04:04:38;98595.78;;;11.62;80.19
59531;BME280;45349;48.692;8.186;2023-05-29T04:07:05;98595.78;;;11.62;80.50
59531;BME280;45349;48.692;8.186;2023-05-29T04:09:38;98608.53;;;11.65;81.60
59531;BME280;45349;48.692;8.186;2023-05-29T04:12:05;98604.13;;;11.66;81.00
59531;BME280;45349;48.692;8.186;2023-05-29T04:14:57;98596.94;;;11.68;79.47
59531;BME280;45349;48.692;8.186;2023-05-29T04:17:25;98606.59;;;11.76;79.84
59531;BME280;45349;48.692;8.186;2023-05-29T04:19:52;98607.44;;;11.76;79.02
59531;BME280;45349;48.692;8.186;2023-05-29T04:22:18;98619.22;;;11.80;80.31
59531;BME280;45349;48.692;8.186;2023-05-29T04:24:46;98610.22;;;11.83;80.27
59531;BME280;45349;48.692;8.186;2023-05-29T04:27:13;98618.56;;;11.87;80.22
59531;BME280;45349;48.692;8.186;2023-05-29T04:29:41;98620.69;;;11.91;80.18
59531;BME280;45349;48.692;8.186;2023-05-29T04:32:08;98630.38;;;11.99;80.95
59531;BME280;45349;48.692;8.186;2023-05-29T04:34:39;98634.66;;;12.00;82.36
59531;BME280;45349;48.692;8.186;2023-05-29T04:37:09;98637.94;;;12.02;82.05
59531;BME280;45349;48.692;8.186;2023-05-29T04:39:38;98643.00;;;12.04;80.97
59531;BME280;45349;48.692;8.186;2023-05-29T04:42:05;98643.50;;;12.07;80.57
59531;BME280;45349;48.692;8.186;2023-05-29T04:44:38;98656.59;;;12.07;81.88
59531;BME280;45349;48.692;8.186;2023-05-29T04:47:04;98661.50;;;12.10;81.96
59531;BME280;45349;48.692;8.186;2023-05-29T04:49:58;98656.94;;;12.13;81.63
59531;BME280;45349;48.692;8.186;2023-05-29T04:52:26;98655.13;;;12.13;81.74
59531;BME280;45349;48.692;8.186;2023-05-29T04:54:53;98660.34;;;12.13;83.13
59531;BME280;45349;48.692;8.186;2023-05-29T04:57:20;98659.22;;;12.16;82.67
59531;BME280;45349;48.692;8.186;2023-05-29T04:59:48;98658.06;;;12.18;82.02
59531;BME280;45349;48.692;8.186;2023-05-29T05:02:14;98665.94;;;12.27;82.25
59531;BME280;45349;48.692;8.186;2023-05-29T05:04:41;98669.38;;;12.27;82.15
59531;BME280;45349;48.692;8.186;2023-05-29T05:07:10;98671.53;;;12.32;82.54
59531;BME280;45349;48.692;8.186;2023-05-29T05:09:38;98681.66;;;12.35;83.09
59531;BME280;45349;48.692;8.186;2023-05-29T05:12:06;98680.69;;;12.36;82.89
59531;BME280;45349;48.692;8.186;2023-05-29T05:14:38;98687.72;;;12.44;83.36
59531;BME280;45349;48.692;8.186;2023-05-29T05:17:04;98677.91;;;12.46;82.99
59531;BME280;45349;48.692;8.186;2023-05-29T05:19:56;98686.28;;;12.49;82.46
59531;BME280;45349;48.692;8.186;2023-05-29T05:22:24;98688.56;;;12.52;81.86
59531;BME280;45349;48.692;8.186;2023-05-29T05:24:51;98683.81;;;12.56;82.36
59531;BME280;45349;48.692;8.186;2023-05-29T05:27:19;98685.13;;;12.52;85.46
59531;BME280;45349;48.692;8.186;2023-05-29T05:29:46;98679.22;;;12.58;82.49
59531;BME280;45349;48.692;8.186;2023-05-29T05:32:14;98685.47;;;12.65;83.05
59531;BME280;45349;48.692;8.186;2023-05-29T05:34:41;98692.34;;;12.75;82.29
59531;BME280;45349;48.692;8.186;2023-05-29T05:37:08;98689.53;;;12.84;81.91
59531;BME280;45349;48.692;8.186;2023-05-29T05:39:41;98696.28;;;12.95;81.30
59531;BME280;45349;48.692;8.186;2023-05-29T05:42:08;98697.41;;;13.09;80.98
59531;BME280;45349;48.692;8.186;2023-05-29T05:44:45;98701.50;;;13.12;81.15
59531;BME280;45349;48.692;8.186;2023-05-29T05:47:13;98696.72;;;13.32;80.48
59531;BME280;45349;48.692;8.186;2023-05-29T05:49:40;98703.09;;;13.54;79.49
59531;BME280;45349;48.692;8.186;2023-05-29T05:52:09;98702.19;;;13.79;78.65
59531;BME280;45349;48.692;8.186;2023-05-29T05:54:38;98710.78;;;14.04;77.87
59531;BME280;45349;48.692;8.186;2023-05-29T05:57:06;98711.53;;;14.21;77.22
59531;BME280;45349;48.692;8.186;2023-05-29T05:59:38;98712.88;;;14.40;77.52
59531;BME280;45349;48.692;8.186;2023-05-29T06:02:06;98715.06;;;14.60;76.79
59531;BME280;45349;48.692;8.186;2023-05-29T06:04:39;98725.78;;;14.82;76.29
59531;BME280;45349;48.692;8.186;2023-05-29T06:07:08;98721.19;;;14.99;75.54
59531;BME280;45349;48.692;8.186;2023-05-29T06:09:38;98726.31;;;15.15;75.19
59531;BME280;45349;48.692;8.186;2023-05-29T06:12:08;98730.91;;;15.37;74.23
59531;BME280;45349;48.692;8.186;2023-05-29T06:14:46;98733.19;;;15.55;73.03
59531;BME280;45349;48.692;8.186;2023-05-29T06:17:12;98737.44;;;15.71;72.78
59531;BME280;45349;48.692;8.186;2023-05-29T06:19:39;98744.03;;;15.90;70.27
59531;BME280;45349;48.692;8.186;2023-05-29T06:22:06;98736.91;;;16.05;69.21
59531;BME280;45349;48.692;8.186;2023-05-29T06:24:38;98748.50;;;16.26;70.94
59531;BME280;45349;48.692;8.186;2023-05-29T06:27:05;98742.75;;;16.37;70.49
59531;BME280;45349;48.692;8.186;2023-05-29T06:29:57;98740.72;;;16.55;69.97
59531;BME280;45349;48.692;8.186;2023-05-29T06:32:24;98748.75;;;16.68;68.77
59531;BME280;45349;48.692;8.186;2023-05-29T06:34:51;98752.34;;;16.82;67.20
59531;BME280;45349;48.692;8.186;2023-05-29T06:37:18;98747.06;;;17.04;65.40
59531;BME280;45349;48.692;8.186;2023-05-29T06:39:45;98747.56;;;17.14;65.02
59531;BME280;45349;48.692;8.186;2023-05-29T06:42:11;98750.78;;;17.31;67.67
59531;BME280;45349;48.692;8.186;2023-05-29T06:44:41;98754.94;;;17.47;65.92
59531;BME280;45349;48.692;8.186;2023-05-29T06:47:10;98755.25;;;17.66;66.58
59531;BME280;45349;48.692;8.186;2023-05-29T06:49:38;98746.34;;;17.67;65.48
59531;BME280;45349;48.692;8.186;2023-05-29T06:52:06;98751.59;;;17.67;65.04
59531;BME280;45349;48.692;8.186;2023-05-29T06:55:16;98749.47;;;17.84;65.73
59531;BME280;45349;48.692;8.186;2023-05-29T06:57:43;98751.31;;;17.90;66.32
59531;BME280;45349;48.692;8.186;2023-05-29T07:00:12;98751.44;;;18.10;65.45
59531;BME280;45349;48.692;8.186;2023-05-29T07:02:47;98757.41;;;18.26;65.31
59531;BME280;45349;48.692;8.186;2023-05-29T07:05:13;98767.41;;;18.37;61.36
59531;BME280;45349;48.692;8.186;2023-05-29T07:07:41;98764.63;;;18.52;60.38
59531;BME280;45349;48.692;8.186;2023-05-29T07:10:10;98756.69;;;18.59;56.65
59531;BME280;45349;48.692;8.186;2023-05-29T07:12:36;98765.88;;;18.77;56.92
59531;BME280;45349;48.692;8.186;2023-05-29T07:15:04;98767.72;;;18.89;62.16
59531;BME280;45349;48.692;8.186;2023-05-29T07:17:32;98767.13;;;18.94;63.87
59531;BME280;45349;48.692;8.186;2023-05-29T07:20:11;98765.31;;;19.15;62.74
59531;BME280;45349;48.692;8.186;2023-05-29T07:22:40;98766.16;;;19.29;63.03
59531;BME280;45349;48.692;8.186;2023-05-29T07:25:08;98769.81;;;19.41;63.22
59531;BME280;45349;48.692;8.186;2023-05-29T07:27:35;98771.22;;;19.57;62.72
59531;BME280;45349;48.692;8.186;2023-05-29T07:30:02;98779.34;;;19.69;62.34
59531;BME280;45349;48.692;8.186;2023-05-29T07:32:29;98774.00;;;19.83;59.21
59531;BME280;45349;48.692;8.186;2023-05-29T07:34:56;98764.44;;;19.82;59.96
59531;BME280;45349;48.692;8.186;2023-05-29T07:37:24;98769.72;;;19.82;54.87
59531;BME280;45349;48.692;8.186;2023-05-29T07:39:51;98767.50;;;19.99;57.16
59531;BME280;45349;48.692;8.186;2023-05-29T07:42:38;98769.13;;;19.86;52.61
59531;BME280;45349;48.692;8.186;2023-05-29T07:45:06;98780.13;;;19.76;53.26
59531;BME280;45349;48.692;8.186;2023-05-29T07:47:32;98774.41;;;19.80;51.60
59531;BME280;45349;48.692;8.186;2023-05-29T07:49:59;98775.44;;;19.85;51.87
59531;BME280;45349;48.692;8.186;2023-05-29T07:52:29;98766.69;;;19.71;52.51
59531;BME280;45349;48.692;8.186;2023-05-29T07:54:55;98760.56;;;19.77;51.12
59531;BME280;45349;48.692;8.186;2023-05-29T07:57:23;98768.50;;;19.98;52.28
59531;BME280;45349;48.692;8.186;2023-05-29T07:59:51;98771.09;;;20.18;51.34
59531;BME280;45349;48.692;8.186;2023-05-29T08:02:18;98761.28;;;20.25;50.99
59531;BME280;45349;48.692;8.186;2023-05-29T08:05:14;98761.41;;;20.44;50.81
59531;BME280;45349;48.692;8.186;2023-05-29T08:07:42;98758.50;;;20.45;51.21
59531;BME280;45349;48.692;8.186;2023-05-29T08:10:09;98758.25;;;20.60;50.79
59531;BME280;45349;48.692;8.186;2023-05-29T08:12:36;98764.66;;;20.78;50.26
59531;BME280;45349;48.692;8.186;2023-05-29T08:15:03;98761.63;;;20.74;50.70
59531;BME280;45349;48.692;8.186;2023-05-29T08:17:29;98764.66;;;20.78;49.51
59531;BME280;45349;48.692;8.186;2023-05-29T08:19:56;98757.16;;;20.68;49.16
59531;BME280;45349;48.692;8.186;2023-05-29T08:22:28;98761.66;;;20.68;49.75
59531;BME280;45349;48.692;8.186;2023-05-29T08:24:56;98772.25;;;20.68;49.28
59531;BME280;45349;48.692;8.186;2023-05-29T08:27:22;98762.63;;;20.80;48.79
59531;BME280;45349;48.692;8.186;2023-05-29T08:29:49;98770.19;;;20.76;48.67
59531;BME280;45349;48.692;8.186;2023-05-29T08:32:15;98766.38;;;20.65;48.28
59531;BME280;45349;48.692;8.186;2023-05-29T08:34:42;98771.56;;;20.86;48.28
59531;BME280;45349;48.692;8.186;2023-05-29T08:37:10;98768.09;;;20.85;48.39
59531;BME280;45349;48.692;8.186;2023-05-29T08:39:38;98772.53;;;20.98;49.18
59531;BME280;45349;48.692;8.186;2023-05-29T08:42:07;98770.97;;;21.16;50.36
59531;BME280;45349;48.692;8.186;2023-05-29T08:44:39;98783.31;;;21.29;47.92
59531;BME280;45349;48.692;8.186;2023-05-29T08:47:07;98773.03;;;21.14;47.31
59531;BME280;45349;48.692;8.186;2023-05-29T08:49:41;98770.53;;;21.19;48.10
59531;BME280;45349;48.692;8.186;2023-05-29T08:52:12;98763.03;;;21.34;48.38
59531;BME280;45349;48.692;8.186;2023-05-29T08:54:40;98769.91;;;21.42;47.00
59531;BME280;45349;48.692;8.186;2023-05-29T08:57:09;98770.47;;;21.26;47.05
59531;BME280;45349;48.692;8.186;2023-05-29T08:59:40;98767.31;;;21.35;47.11
59531;BME280;45349;48.692;8.186;2023-05-29T09:02:09;98768.06;;;21.43;47.22
59531;BME280;45349;48.692;8.186;2023-05-29T09:04:38;98771.19;;;21.58;47.78
59531;BME280;45349;48.692;8.186;2023-05-29T09:07:07;98778.91;;;21.66;47.74
59531;BME280;45349;48.692;8.186;2023-05-29T09:09:38;98774.63;;;21.65;47.69
59531;BME280;45349;48.692;8.186;2023-05-29T09:12:05;98780.00;;;21.77;46.30
59531;BME280;45349;48.692;8.186;2023-05-29T09:14:41;98771.25;;;21.77;46.26
59531;BME280;45349;48.692;8.186;2023-05-29T09:17:10;98775.53;;;21.96;46.23
59531;BME280;45349;48.692;8.186;2023-05-29T09:19:38;98779.50;;;22.06;46.53
59531;BME280;45349;48.692;8.186;2023-05-29T09:22:07;98785.91;;;22.17;46.19
59531;BME280;45349;48.692;8.186;2023-05-29T09:24:38;98784.38;;;22.09;46.66
59531;BME280;45349;48.692;8.186;2023-05-29T09:27:05;98791.88;;;22.31;46.97
59531;BME280;45349;48.692;8.186;2023-05-29T09:29:40;98791.03;;;22.18;46.65
59531;BME280;45349;48.692;8.186;2023-05-29T09:32:07;98786.22;;;22.08;45.95
59531;BME280;45349;48.692;8.186;2023-05-29T09:34:38;98782.47;;;21.97;45.18
59531;BME280;45349;48.692;8.186;2023-05-29T09:37:06;98789.47;;;21.92;46.23
59531;BME280;45349;48.692;8.186;2023-05-29T09:39:45;98788.88;;;22.08;46.40
59531;BME280;45349;48.692;8.186;2023-05-29T09:42:12;98793.00;;;22.04;46.24
59531;BME280;45349;48.692;8.186;2023-05-29T09:44:41;98797.88;;;21.89;46.96
59531;BME280;45349;48.692;8.186;2023-05-29T09:47:08;98784.22;;;21.85;46.54
59531;BME280;45349;48.692;8.186;2023-05-29T09:49:40;98789.31;;;22.05;46.27
59531;BME280;45349;48.692;8.186;2023-05-29T09:52:10;98791.91;;;21.93;45.58
59531;BME280;45349;48.692;8.186;2023-05-29T09:54:41;98790.00;;;22.01;45.99
59531;BME280;45349;48.692;8.186;2023-05-29T09:57:10;98787.69;;;22.04;46.37
59531;BME280;45349;48.692;8.186;2023-05-29T09:59:40;98777.41;;;22.26;46.21
59531;BME280;45349;48.692;8.186;2023-05-29T10:02:09;98786.25;;;22.39;45.66
59531;BME280;45349;48.692;8.186;2023-05-29T10:04:38;98780.88;;;22.27;46.25
59531;BME280;45349;48.692;8.186;2023-05-29T10:07:08;98772.94;;;22.58;47.45
59531;BME280;45349;48.692;8.186;2023-05-29T10:09:44;98775.88;;;22.68;45.01
59531;BME280;45349;48.692;8.186;2023-05-29T10:12:17;98777.38;;;22.64;44.53
59531;BME280;45349;48.692;8.186;2023-05-29T10:14:49;98775.16;;;22.42;43.99
59531;BME280;45349;48.692;8.186;2023-05-29T10:17:17;98779.59;;;22.67;44.59
59531;BME280;45349;48.692;8.186;2023-05-29T10:19:45;98776.84;;;22.74;43.88
59531;BME280;45349;48.692;8.186;2023-05-29T10:22:13;98770.63;;;22.92;43.18
59531;BME280;45349;48.692;8.186;2023-05-29T10:24:42;98767.50;;;22.95;43.31
59531;BME280;45349;48.692;8.186;2023-05-29T10:27:09;98762.78;;;23.09;43.26
59531;BME280;45349;48.692;8.186;2023-05-29T10:29:43;98751.84;;;23.29;44.28
59531;BME280;45349;48.692;8.186;2023-05-29T10:32:21;98753.34;;;23.25;42.59
59531;BME280;45349;48.692;8.186;2023-05-29T10:34:56;98746.25;;;23.42;42.41
59531;BME280;45349;48.692;8.186;2023-05-29T10:37:33;98750.91;;;23.59;42.42
59531;BME280;45349;48.692;8.186;2023-05-29T10:40:05;98754.50;;;23.29;42.16
59531;BME280;45349;48.692;8.186;2023-05-29T10:42:41;98751.13;;;23.69;42.58
59531;BME280;45349;48.692;8.186;2023-05-29T10:45:08;98756.22;;;23.71;39.23
59531;BME280;45349;48.692;8.186;2023-05-29T10:47:36;98750.41;;;23.86;39.84
59531;BME280;45349;48.692;8.186;2023-05-29T10:50:04;98751.25;;;23.51;39.33
59531;BME280;45349;48.692;8.186;2023-05-29T10:52:31;98752.28;;;23.73;39.51
59531;BME280;45349;48.692;8.186;2023-05-29T10:54:57;98754.72;;;23.63;38.79
59531;BME280;45349;48.692;8.186;2023-05-29T10:57:25;98751.44;;;23.85;38.94
59531;BME280;45349;48.692;8.186;2023-05-29T10:59:59;98750.53;;;23.79;39.08
59531;BME280;45349;48.692;8.186;2023-05-29T11:02:27;98737.53;;;23.83;38.68
59531;BME280;45349;48.692;8.186;2023-05-29T11:05:06;98743.13;;;23.81;38.58
59531;BME280;45349;48.692;8.186;2023-05-29T11:07:51;98744.16;;;23.80;37.93
59531;BME280;45349;48.692;8.186;2023-05-29T11:10:45;98751.28;;;23.92;39.23
59531;BME280;45349;48.692;8.186;2023-05-29T11:13:25;98734.75;;;23.78;38.11
59531;BME280;45349;48.692;8.186;2023-05-29T11:16:11;98737.63;;;24.12;38.53
59531;BME280;45349;48.692;8.186;2023-05-29T11:18:40;98753.84;;;24.10;38.03
59531;BME280;45349;48.692;8.186;2023-05-29T11:21:18;98758.84;;;24.07;37.96
59531;BME280;45349;48.692;8.186;2023-05-29T11:23:53;98735.06;;;24.17;37.77
59531;BME280;45349;48.692;8.186;2023-05-29T11:26:27;98748.28;;;24.12;37.40
59531;BME280;45349;48.692;8.186;2023-05-29T11:28:57;98755.09;;;24.20;37.70
59531;BME280;45349;48.692;8.186;2023-05-29T11:31:24;98745.94;;;24.44;36.80
59531;BME280;45349;48.692;8.186;2023-05-29T11:33:54;98745.47;;;24.47;37.03
59531;BME280;45349;48.692;8.186;2023-05-29T11:36:23;98752.13;;;24.62;35.45
59531;BME280;45349;48.692;8.186;2023-05-29T11:38:51;98740.69;;;24.32;36.59
59531;BME280;45349;48.692;8.186;2023-05-29T11:41:18;98756.22;;;24.36;35.78
59531;BME280;45349;48.692;8.186;2023-05-29T11:43:45;98751.75;;;24.41;36.28
59531;BME280;45349;48.692;8.186;2023-05-29T11:46:21;98748.72;;;24.67;36.76
59531;BME280;45349;48.692;8.186;2023-05-29T11:48:48;98747.38;;;24.64;35.80
59531;BME280;45349;48.692;8.186;2023-05-29T11:51:15;98748.25;;;24.70;35.18
59531;BME280;45349;48.692;8.186;2023-05-29T11:53:43;98744.25;;;24.55;35.56
59531;BME280;45349;48.692;8.186;2023-05-29T11:56:12;98748.25;;;24.70;34.41
59531;BME280;45349;48.692;8.186;2023-05-29T11:58:40;98738.91;;;24.55;34.50
59531;BME280;45349;48.692;8.186;2023-05-29T12:01:07;98752.53;;;24.71;34.57
59531;BME280;45349;48.692;8.186;2023-05-29T12:03:37;98758.91;;;24.82;34.19
59531;BME280;45349;48.692;8.186;2023-05-29T12:06:05;98769.97;;;24.73;33.36
59531;BME280;45349;48.692;8.186;2023-05-29T12:08:32;98749.41;;;24.74;33.99
59531;BME280;45349;48.692;8.186;2023-05-29T12:11:00;98750.91;;;24.82;34.79
59531;BME280;45349;48.692;8.186;2023-05-29T12:13:27;98758.56;;;24.78;34.09
59531;BME280;45349;48.692;8.186;2023-05-29T12:15:56;98753.56;;;24.82;34.14
59531;BME280;45349;48.692;8.186;2023-05-29T12:18:23;98762.06;;;24.67;33.55
59531;BME280;45349;48.692;8.186;2023-05-29T12:20:50;98754.28;;;24.94;34.29
59531;BME280;45349;48.692;8.186;2023-05-29T12:23:18;98745.97;;;24.90;34.36
59531;BME280;45349;48.692;8.186;2023-05-29T12:25:46;98745.88;;;24.85;33.96
59531;BME280;45349;48.692;8.186;2023-05-29T12:28:17;98759.38;;;24.79;34.36
59531;BME280;45349;48.692;8.186;2023-05-29T12:30:44;98752.19;;;25.13;34.28
59531;BME280;45349;48.692;8.186;2023-05-29T12:33:25;98753.91;;;25.19;33.07
59531;BME280;45349;48.692;8.186;2023-05-29T12:35:53;98744.25;;;25.01;33.13
59531;BME280;45349;48.692;8.186;2023-05-29T12:38:19;98755.34;;;25.10;33.33
59531;BME280;45349;48.692;8.186;2023-05-29T12:40:48;98756.06;;;24.88;34.05
59531;BME280;45349;48.692;8.186;2023-05-29T12:43:17;98746.69;;;24.86;33.39
59531;BME280;45349;48.692;8.186;2023-05-29T12:45:44;98750.72;;;25.23;33.89
59531;BME280;45349;48.692;8.186;2023-05-29T12:48:10;98751.53;;;25.40;32.85
59531;BME280;45349;48.692;8.186;2023-05-29T12:50:38;98752.31;;;25.58;33.00
59531;BME280;45349;48.692;8.186;2023-05-29T12:53:06;98753.66;;;25.04;32.94
59531;BME280;45349;48.692;8.186;2023-05-29T12:55:35;98746.91;;;25.35;35.11
59531;BME280;45349;48.692;8.186;2023-05-29T12:58:04;98758.16;;;25.55;33.04
59531;BME280;45349;48.692;8.186;2023-05-29T13:00:33;98760.09;;;25.42;34.04
59531;BME280;45349;48.692;8.186;2023-05-29T13:03:00;98762.69;;;25.54;32.19
59531;BME280;45349;48.692;8.186;2023-05-29T13:05:27;98767.22;;;25.37;32.99
59531;BME280;45349;48.692;8.186;2023-05-29T13:07:54;98767.13;;;25.66;33.23
59531;BME280;45349;48.692;8.186;2023-05-29T13:10:21;98757.28;;;25.32;32.79
59531;BME280;45349;48.692;8.186;2023-05-29T13:12:48;98761.38;;;25.74;32.70
59531;BME280;45349;48.692;8.186;2023-05-29T13:15:19;98767.63;;;25.45;33.26
59531;BME280;45349;48.692;8.186;2023-05-29T13:17:47;98761.66;;;25.55;32.16